sensor_id;sensor_type;location;lat;lon;timestamp;pressure;altitude;pressure_sealevel;temperature;humidity
74578;BME280;75151;49.086;33.418;2024-03-22T00:01:45;101002.75;;;-0.45;49.69
74578;BME280;75151;49.086;33.418;2024-03-22T00:04:12;100991.78;;;-1.02;51.42
74578;BME280;75151;49.086;33.418;2024-03-22T00:06:39;101001.84;;;-2.04;53.51
74578;BME280;75151;49.086;33.418;2024-03-22T00:09:05;100999.22;;;-1.51;51.56
74578;BME280;75151;49.086;33.418;2024-03-22T00:11:31;100998.91;;;-1.97;52.57
74578;BME280;75151;49.086;33.418;2024-03-22T00:13:57;101006.38;;;-1.61;53.62
74578;BME280;75151;49.086;33.418;2024-03-22T00:16:23;101006.78;;;-0.89;50.54
74578;BME280;75151;49.086;33.418;2024-03-22T00:18:48;101007.00;;;-0.96;48.49
74578;BME280;75151;49.086;33.418;2024-03-22T00:21:14;101002.31;;;-1.64;49.98
74578;BME280;75151;49.086;33.418;2024-03-22T00:23:40;101005.81;;;-1.05;50.64
74578;BME280;75151;49.086;33.418;2024-03-22T00:26:07;101001.53;;;-1.01;51.05
74578;BME280;75151;49.086;33.418;2024-03-22T00:28:32;101009.72;;;-2.41;53.38
74578;BME280;75151;49.086;33.418;2024-03-22T00:30:58;101006.34;;;-1.88;52.38
74578;BME280;75151;49.086;33.418;2024-03-22T00:33:24;101005.91;;;-1.31;51.52
74578;BME280;75151;49.086;33.418;2024-03-22T00:35:50;101010.19;;;-1.35;51.83
74578;BME280;75151;49.086;33.418;2024-03-22T00:38:16;101011.22;;;-1.41;50.16
74578;BME280;75151;49.086;33.418;2024-03-22T00:40:42;101009.25;;;-2.38;54.05
74578;BME280;75151;49.086;33.418;2024-03-22T00:43:07;101004.09;;;-1.48;52.15
74578;BME280;75151;49.086;33.418;2024-03-22T00:45:33;100998.84;;;-2.24;52.90
74578;BME280;75151;49.086;33.418;2024-03-22T00:47:59;101000.97;;;-1.34;51.53
74578;BME280;75151;49.086;33.418;2024-03-22T00:50:24;100999.25;;;-1.46;51.18
74578;BME280;75151;49.086;33.418;2024-03-22T00:52:51;101003.94;;;-1.84;51.24
74578;BME280;75151;49.086;33.418;2024-03-22T00:55:18;101003.66;;;-2.09;52.18
74578;BME280;75151;49.086;33.418;2024-03-22T00:57:44;101001.94;;;-1.72;52.17
74578;BME280;75151;49.086;33.418;2024-03-22T01:00:10;100998.16;;;-1.93;52.36
74578;BME280;75151;49.086;33.418;2024-03-22T01:02:36;100996.47;;;-1.99;53.93
74578;BME280;75151;49.086;33.418;2024-03-22T01:05:02;100992.28;;;-2.88;55.37
74578;BME280;75151;49.086;33.418;2024-03-22T01:07:27;100993.81;;;-1.72;51.61
74578;BME280;75151;49.086;33.418;2024-03-22T01:09:53;100993.00;;;-1.46;51.34
74578;BME280;75151;49.086;33.418;2024-03-22T01:12:19;100996.53;;;-1.94;52.53
74578;BME280;75151;49.086;33.418;2024-03-22T01:14:44;100990.97;;;-1.34;50.85
74578;BME280;75151;49.086;33.418;2024-03-22T01:17:10;100994.75;;;-1.62;50.50
74578;BME280;75151;49.086;33.418;2024-03-22T01:19:36;100993.44;;;-2.46;53.15
74578;BME280;75151;49.086;33.418;2024-03-22T01:22:01;100984.81;;;-2.64;52.79
74578;BME280;75151;49.086;33.418;2024-03-22T01:24:27;100985.13;;;-2.39;54.99
74578;BME280;75151;49.086;33.418;2024-03-22T01:26:53;100986.09;;;-1.85;51.16
74578;BME280;75151;49.086;33.418;2024-03-22T01:29:19;100988.84;;;-0.95;50.27
74578;BME280;75151;49.086;33.418;2024-03-22T01:31:45;100998.81;;;-1.32;49.29
74578;BME280;75151;49.086;33.418;2024-03-22T01:34:10;100990.75;;;-2.02;52.34
74578;BME280;75151;49.086;33.418;2024-03-22T01:36:36;100992.44;;;-1.75;51.27
74578;BME280;75151;49.086;33.418;2024-03-22T01:39:02;100993.19;;;-2.44;51.97
74578;BME280;75151;49.086;33.418;2024-03-22T01:41:28;100992.66;;;-1.76;51.80
74578;BME280;75151;49.086;33.418;2024-03-22T01:43:53;100988.25;;;-2.30;52.79
74578;BME280;75151;49.086;33.418;2024-03-22T01:46:19;100988.66;;;-2.77;54.17
74578;BME280;75151;49.086;33.418;2024-03-22T01:48:45;100986.28;;;-1.43;51.23
74578;BME280;75151;49.086;33.418;2024-03-22T01:51:11;100988.03;;;-1.54;50.57
74578;BME280;75151;49.086;33.418;2024-03-22T01:53:37;100983.72;;;-2.25;52.14
74578;BME280;75151;49.086;33.418;2024-03-22T01:56:03;100984.03;;;-1.52;50.36
74578;BME280;75151;49.086;33.418;2024-03-22T01:58:29;100984.63;;;-1.45;50.83
74578;BME280;75151;49.086;33.418;2024-03-22T02:00:55;100981.19;;;-2.10;50.90
74578;BME280;75151;49.086;33.418;2024-03-22T02:03:21;100988.53;;;-1.62;50.59
74578;BME280;75151;49.086;33.418;2024-03-22T02:05:47;100983.53;;;-1.75;52.41
74578;BME280;75151;49.086;33.418;2024-03-22T02:08:13;100987.66;;;-1.41;50.04
74578;BME280;75151;49.086;33.418;2024-03-22T02:10:38;100980.03;;;-1.12;49.61
74578;BME280;75151;49.086;33.418;2024-03-22T02:13:04;100988.84;;;-2.83;53.26
74578;BME280;75151;49.086;33.418;2024-03-22T02:15:30;100978.22;;;-2.52;52.27
74578;BME280;75151;49.086;33.418;2024-03-22T02:17:56;100979.63;;;-2.49;53.23
74578;BME280;75151;49.086;33.418;2024-03-22T02:20:22;100980.63;;;-2.33;51.89
74578;BME280;75151;49.086;33.418;2024-03-22T02:22:48;100973.56;;;-2.56;52.41
74578;BME280;75151;49.086;33.418;2024-03-22T02:25:14;100968.34;;;-2.41;52.66
74578;BME280;75151;49.086;33.418;2024-03-22T02:27:39;100965.91;;;-2.43;53.21
74578;BME280;75151;49.086;33.418;2024-03-22T02:30:06;100961.22;;;-1.82;51.86
74578;BME280;75151;49.086;33.418;2024-03-22T02:32:31;100963.31;;;-1.68;51.90
74578;BME280;75151;49.086;33.418;2024-03-22T02:34:57;100966.88;;;-1.30;49.75
74578;BME280;75151;49.086;33.418;2024-03-22T02:37:23;100967.00;;;-1.15;49.04
74578;BME280;75151;49.086;33.418;2024-03-22T02:39:49;100962.31;;;-1.25;49.24
74578;BME280;75151;49.086;33.418;2024-03-22T02:42:15;100965.78;;;-2.53;51.42
74578;BME280;75151;49.086;33.418;2024-03-22T02:44:41;100967.03;;;-1.74;51.71
74578;BME280;75151;49.086;33.418;2024-03-22T02:47:09;100973.06;;;-1.35;50.72
74578;BME280;75151;49.086;33.418;2024-03-22T02:49:36;100972.03;;;-1.82;50.37
74578;BME280;75151;49.086;33.418;2024-03-22T02:52:02;100975.16;;;-2.17;50.17
74578;BME280;75151;49.086;33.418;2024-03-22T02:54:28;100966.47;;;-1.76;50.92
74578;BME280;75151;49.086;33.418;2024-03-22T02:56:54;100973.31;;;-2.33;51.07
74578;BME280;75151;49.086;33.418;2024-03-22T02:59:20;100971.69;;;-1.91;51.18
74578;BME280;75151;49.086;33.418;2024-03-22T03:01:45;100974.91;;;-1.40;50.58
74578;BME280;75151;49.086;33.418;2024-03-22T03:04:11;100971.28;;;-1.56;49.32
74578;BME280;75151;49.086;33.418;2024-03-22T03:06:37;100971.91;;;-1.71;49.34
74578;BME280;75151;49.086;33.418;2024-03-22T03:09:03;100971.63;;;-2.17;50.41
74578;BME280;75151;49.086;33.418;2024-03-22T03:11:32;100969.31;;;-1.61;49.41
74578;BME280;75151;49.086;33.418;2024-03-22T03:13:58;100966.41;;;-2.24;51.27
74578;BME280;75151;49.086;33.418;2024-03-22T03:16:24;100969.47;;;-1.94;50.64
74578;BME280;75151;49.086;33.418;2024-03-22T03:18:50;100965.63;;;-2.24;51.48
74578;BME280;75151;49.086;33.418;2024-03-22T03:21:15;100959.81;;;-2.93;52.91
74578;BME280;75151;49.086;33.418;2024-03-22T03:23:41;100957.28;;;-2.61;53.95
74578;BME280;75151;49.086;33.418;2024-03-22T03:26:07;100956.53;;;-3.28;54.76
74578;BME280;75151;49.086;33.418;2024-03-22T03:28:32;100966.78;;;-3.13;54.37
74578;BME280;75151;49.086;33.418;2024-03-22T03:30:58;100966.91;;;-2.27;52.58
74578;BME280;75151;49.086;33.418;2024-03-22T03:33:24;100973.69;;;-1.81;52.33
74578;BME280;75151;49.086;33.418;2024-03-22T03:35:50;100973.38;;;-1.85;50.36
74578;BME280;75151;49.086;33.418;2024-03-22T03:38:15;100979.66;;;-1.79;51.11
74578;BME280;75151;49.086;33.418;2024-03-22T03:40:41;100985.84;;;-2.05;51.14
74578;BME280;75151;49.086;33.418;2024-03-22T03:48:42;100993.34;;;-3.05;53.62
74578;BME280;75151;49.086;33.418;2024-03-22T03:51:08;100992.56;;;-3.06;52.92
74578;BME280;75151;49.086;33.418;2024-03-22T03:53:34;100995.66;;;-2.21;52.31
74578;BME280;75151;49.086;33.418;2024-03-22T03:55:59;100993.47;;;-2.02;50.43
74578;BME280;75151;49.086;33.418;2024-03-22T03:58:25;100983.06;;;-2.10;51.07
74578;BME280;75151;49.086;33.418;2024-03-22T04:00:51;100979.03;;;-2.29;51.77
74578;BME280;75151;49.086;33.418;2024-03-22T04:03:17;100979.00;;;-2.73;53.15
74578;BME280;75151;49.086;33.418;2024-03-22T04:05:42;100977.53;;;-3.63;54.78
74578;BME280;75151;49.086;33.418;2024-03-22T04:08:08;100977.78;;;-3.65;56.05
74578;BME280;75151;49.086;33.418;2024-03-22T04:10:34;100978.16;;;-2.35;53.56
74578;BME280;75151;49.086;33.418;2024-03-22T04:12:59;100977.09;;;-1.91;52.03
74578;BME280;75151;49.086;33.418;2024-03-22T04:15:25;100980.50;;;-2.44;52.12
74578;BME280;75151;49.086;33.418;2024-03-22T04:17:51;100980.44;;;-1.79;50.68
74578;BME280;75151;49.086;33.418;2024-03-22T04:20:17;100983.94;;;-2.05;51.55
74578;BME280;75151;49.086;33.418;2024-03-22T04:22:43;100984.22;;;-2.28;53.47
74578;BME280;75151;49.086;33.418;2024-03-22T04:25:08;100989.28;;;-2.31;51.94
74578;BME280;75151;49.086;33.418;2024-03-22T04:27:38;100978.53;;;-2.05;51.20
74578;BME280;75151;49.086;33.418;2024-03-22T04:30:04;100986.16;;;-2.23;51.19
74578;BME280;75151;49.086;33.418;2024-03-22T04:32:29;100990.72;;;-2.07;50.35
74578;BME280;75151;49.086;33.418;2024-03-22T04:34:55;100994.13;;;-2.55;53.29
74578;BME280;75151;49.086;33.418;2024-03-22T04:37:21;100994.38;;;-1.92;50.90
74578;BME280;75151;49.086;33.418;2024-03-22T04:39:47;100998.13;;;-2.19;51.81
74578;BME280;75151;49.086;33.418;2024-03-22T04:42:12;100986.78;;;-3.43;54.97
74578;BME280;75151;49.086;33.418;2024-03-22T04:44:38;100993.16;;;-2.66;53.20
74578;BME280;75151;49.086;33.418;2024-03-22T04:47:04;100993.41;;;-2.29;53.04
74578;BME280;75151;49.086;33.418;2024-03-22T04:49:30;100998.91;;;-2.79;52.55
74578;BME280;75151;49.086;33.418;2024-03-22T04:51:56;100988.13;;;-2.95;53.39
74578;BME280;75151;49.086;33.418;2024-03-22T04:54:22;100990.47;;;-2.82;53.43
74578;BME280;75151;49.086;33.418;2024-03-22T04:56:48;100989.34;;;-2.86;53.47
74578;BME280;75151;49.086;33.418;2024-03-22T04:59:13;100986.66;;;-3.03;53.46
74578;BME280;75151;49.086;33.418;2024-03-22T05:01:39;100986.97;;;-2.99;53.27
74578;BME280;75151;49.086;33.418;2024-03-22T05:04:05;101000.06;;;-2.15;52.27
74578;BME280;75151;49.086;33.418;2024-03-22T05:06:30;100985.56;;;-2.69;52.82
74578;BME280;75151;49.086;33.418;2024-03-22T05:08:56;100994.34;;;-3.11;53.64
74578;BME280;75151;49.086;33.418;2024-03-22T05:11:22;100986.97;;;-2.01;52.61
74578;BME280;75151;49.086;33.418;2024-03-22T05:13:48;100993.41;;;-2.67;52.86
74578;BME280;75151;49.086;33.418;2024-03-22T05:16:13;100997.09;;;-2.73;52.82
74578;BME280;75151;49.086;33.418;2024-03-22T05:18:39;100998.91;;;-2.95;52.96
74578;BME280;75151;49.086;33.418;2024-03-22T05:21:05;100994.06;;;-2.39;52.98
74578;BME280;75151;49.086;33.418;2024-03-22T05:23:31;100988.84;;;-3.00;53.28
74578;BME280;75151;49.086;33.418;2024-03-22T05:25:57;100990.84;;;-3.28;54.34
74578;BME280;75151;49.086;33.418;2024-03-22T05:28:22;100979.50;;;-3.59;55.78
74578;BME280;75151;49.086;33.418;2024-03-22T05:30:48;100987.72;;;-3.20;55.64
74578;BME280;75151;49.086;33.418;2024-03-22T05:33:14;100991.94;;;-3.86;55.91
74578;BME280;75151;49.086;33.418;2024-03-22T05:35:40;100985.97;;;-3.43;55.81
74578;BME280;75151;49.086;33.418;2024-03-22T05:38:07;100994.41;;;-3.40;56.12
74578;BME280;75151;49.086;33.418;2024-03-22T05:40:32;100982.97;;;-3.75;55.67
74578;BME280;75151;49.086;33.418;2024-03-22T05:43:01;100997.06;;;-3.56;56.48
74578;BME280;75151;49.086;33.418;2024-03-22T05:45:27;100988.50;;;-2.70;54.62
74578;BME280;75151;49.086;33.418;2024-03-22T05:47:52;100984.84;;;-2.21;52.54
74578;BME280;75151;49.086;33.418;2024-03-22T05:50:18;100991.28;;;-2.65;53.02
74578;BME280;75151;49.086;33.418;2024-03-22T05:52:46;100981.91;;;-2.79;52.80
74578;BME280;75151;49.086;33.418;2024-03-22T05:55:11;100990.03;;;-2.58;53.50
74578;BME280;75151;49.086;33.418;2024-03-22T05:57:37;100989.59;;;-2.50;52.21
74578;BME280;75151;49.086;33.418;2024-03-22T06:00:03;100986.53;;;-2.37;53.46
74578;BME280;75151;49.086;33.418;2024-03-22T06:02:29;100989.63;;;-1.85;50.78
74578;BME280;75151;49.086;33.418;2024-03-22T06:04:55;100994.50;;;-2.47;51.39
74578;BME280;75151;49.086;33.418;2024-03-22T06:07:21;100990.66;;;-2.51;53.05
74578;BME280;75151;49.086;33.418;2024-03-22T06:09:46;100993.28;;;-3.10;54.77
74578;BME280;75151;49.086;33.418;2024-03-22T06:12:12;100994.84;;;-2.81;54.37
74578;BME280;75151;49.086;33.418;2024-03-22T06:14:42;100992.81;;;-2.31;53.13
74578;BME280;75151;49.086;33.418;2024-03-22T06:17:12;100990.78;;;-2.62;53.53
74578;BME280;75151;49.086;33.418;2024-03-22T06:19:38;100990.63;;;-1.91;52.73
74578;BME280;75151;49.086;33.418;2024-03-22T06:22:03;100984.41;;;-1.70;50.17
74578;BME280;75151;49.086;33.418;2024-03-22T06:24:29;100996.31;;;-0.71;50.87
74578;BME280;75151;49.086;33.418;2024-03-22T06:26:55;101000.31;;;0.15;46.15
74578;BME280;75151;49.086;33.418;2024-03-22T06:29:21;100994.88;;;-0.46;47.93
74578;BME280;75151;49.086;33.418;2024-03-22T06:31:47;100998.47;;;-0.31;46.37
74578;BME280;75151;49.086;33.418;2024-03-22T06:34:13;100997.19;;;-1.02;48.64
74578;BME280;75151;49.086;33.418;2024-03-22T06:36:38;100998.94;;;-0.44;46.84
74578;BME280;75151;49.086;33.418;2024-03-22T06:39:04;100994.97;;;1.31;45.05
74578;BME280;75151;49.086;33.418;2024-03-22T06:41:35;100999.63;;;-1.64;48.08
74578;BME280;75151;49.086;33.418;2024-03-22T06:44:01;101001.56;;;-0.07;47.40
74578;BME280;75151;49.086;33.418;2024-03-22T06:46:27;101008.59;;;-1.80;48.71
74578;BME280;75151;49.086;33.418;2024-03-22T06:48:53;100998.22;;;-1.39;50.87
74578;BME280;75151;49.086;33.418;2024-03-22T06:51:20;100996.09;;;0.65;46.54
74578;BME280;75151;49.086;33.418;2024-03-22T06:53:45;100997.19;;;-0.13;46.71
74578;BME280;75151;49.086;33.418;2024-03-22T06:56:13;101000.19;;;-0.62;45.83
74578;BME280;75151;49.086;33.418;2024-03-22T06:58:39;101000.38;;;-1.68;51.15
74578;BME280;75151;49.086;33.418;2024-03-22T07:01:05;100996.38;;;-1.34;50.32
74578;BME280;75151;49.086;33.418;2024-03-22T07:03:30;100995.66;;;-0.51;48.90
74578;BME280;75151;49.086;33.418;2024-03-22T07:05:56;100988.59;;;-1.52;51.09
74578;BME280;75151;49.086;33.418;2024-03-22T07:08:24;100985.34;;;-0.96;48.48
74578;BME280;75151;49.086;33.418;2024-03-22T07:10:50;100988.28;;;-0.56;47.20
74578;BME280;75151;49.086;33.418;2024-03-22T07:13:18;100984.13;;;0.81;46.56
74578;BME280;75151;49.086;33.418;2024-03-22T07:15:44;100974.34;;;1.10;44.51
74578;BME280;75151;49.086;33.418;2024-03-22T07:18:10;100987.84;;;1.70;43.25
74578;BME280;75151;49.086;33.418;2024-03-22T07:20:36;100982.44;;;2.24;42.42
74578;BME280;75151;49.086;33.418;2024-03-22T07:23:02;100979.22;;;0.98;44.16
74578;BME280;75151;49.086;33.418;2024-03-22T07:25:29;100984.31;;;1.55;42.99
74578;BME280;75151;49.086;33.418;2024-03-22T07:27:55;100974.88;;;1.02;42.43
74578;BME280;75151;49.086;33.418;2024-03-22T07:30:21;100979.50;;;1.06;44.95
74578;BME280;75151;49.086;33.418;2024-03-22T07:32:47;100977.34;;;-0.71;46.93
74578;BME280;75151;49.086;33.418;2024-03-22T07:35:13;100979.19;;;0.32;45.94
74578;BME280;75151;49.086;33.418;2024-03-22T07:37:39;100971.84;;;2.17;42.41
74578;BME280;75151;49.086;33.418;2024-03-22T07:40:05;100979.84;;;-0.07;46.01
74578;BME280;75151;49.086;33.418;2024-03-22T07:42:31;100989.50;;;0.30;46.52
74578;BME280;75151;49.086;33.418;2024-03-22T07:44:56;100977.31;;;0.48;45.60
74578;BME280;75151;49.086;33.418;2024-03-22T07:47:22;100988.69;;;2.24;41.95
74578;BME280;75151;49.086;33.418;2024-03-22T07:49:48;100982.75;;;1.33;43.88
74578;BME280;75151;49.086;33.418;2024-03-22T07:52:14;100980.47;;;1.61;42.01
74578;BME280;75151;49.086;33.418;2024-03-22T07:54:39;100989.31;;;2.94;39.64
74578;BME280;75151;49.086;33.418;2024-03-22T07:57:05;100985.13;;;2.29;41.95
74578;BME280;75151;49.086;33.418;2024-03-22T07:59:31;100992.81;;;1.18;43.70
74578;BME280;75151;49.086;33.418;2024-03-22T08:01:57;100984.53;;;1.83;42.61
74578;BME280;75151;49.086;33.418;2024-03-22T08:04:23;100993.91;;;0.62;45.87
74578;BME280;75151;49.086;33.418;2024-03-22T08:06:50;100981.97;;;0.88;44.60
74578;BME280;75151;49.086;33.418;2024-03-22T08:09:16;100985.09;;;0.09;45.91
74578;BME280;75151;49.086;33.418;2024-03-22T08:11:44;100971.91;;;0.88;45.73
74578;BME280;75151;49.086;33.418;2024-03-22T08:14:10;100973.06;;;2.45;42.85
74578;BME280;75151;49.086;33.418;2024-03-22T08:16:35;100959.66;;;3.16;41.33
74578;BME280;75151;49.086;33.418;2024-03-22T08:19:01;100967.22;;;2.18;41.80
74578;BME280;75151;49.086;33.418;2024-03-22T08:21:27;100963.78;;;1.97;42.60
74578;BME280;75151;49.086;33.418;2024-03-22T08:23:53;100968.91;;;0.80;43.72
74578;BME280;75151;49.086;33.418;2024-03-22T08:26:19;100966.66;;;1.52;43.59
74578;BME280;75151;49.086;33.418;2024-03-22T08:28:46;100968.69;;;2.83;41.18
74578;BME280;75151;49.086;33.418;2024-03-22T08:31:13;100957.78;;;3.11;39.85
74578;BME280;75151;49.086;33.418;2024-03-22T08:33:38;100962.22;;;1.81;42.17
74578;BME280;75151;49.086;33.418;2024-03-22T08:36:04;100955.50;;;1.49;43.35
74578;BME280;75151;49.086;33.418;2024-03-22T08:38:30;100956.66;;;0.42;46.33
74578;BME280;75151;49.086;33.418;2024-03-22T08:40:56;100962.41;;;0.86;45.96
74578;BME280;75151;49.086;33.418;2024-03-22T08:43:21;100957.19;;;1.29;44.56
74578;BME280;75151;49.086;33.418;2024-03-22T08:45:55;100953.31;;;2.19;42.30
74578;BME280;75151;49.086;33.418;2024-03-22T08:48:21;100955.56;;;3.18;39.63
74578;BME280;75151;49.086;33.418;2024-03-22T08:50:47;100951.56;;;3.11;40.85
74578;BME280;75151;49.086;33.418;2024-03-22T08:53:12;100949.25;;;3.70;39.05
74578;BME280;75151;49.086;33.418;2024-03-22T08:55:45;100944.44;;;1.99;42.23
74578;BME280;75151;49.086;33.418;2024-03-22T08:58:10;100944.78;;;2.31;42.85
74578;BME280;75151;49.086;33.418;2024-03-22T09:00:36;100950.31;;;3.93;39.25
74578;BME280;75151;49.086;33.418;2024-03-22T09:03:03;100945.59;;;2.70;41.55
74578;BME280;75151;49.086;33.418;2024-03-22T09:05:29;100945.34;;;1.84;43.70
74578;BME280;75151;49.086;33.418;2024-03-22T09:07:55;100944.56;;;2.27;43.15
74578;BME280;75151;49.086;33.418;2024-03-22T09:10:22;100953.66;;;2.52;42.65
74578;BME280;75151;49.086;33.418;2024-03-22T09:12:48;100955.81;;;2.55;42.77
74578;BME280;75151;49.086;33.418;2024-03-22T09:15:14;100964.56;;;3.19;41.38
74578;BME280;75151;49.086;33.418;2024-03-22T09:17:39;100962.31;;;1.36;44.99
74578;BME280;75151;49.086;33.418;2024-03-22T09:20:05;100963.94;;;2.60;42.77
74578;BME280;75151;49.086;33.418;2024-03-22T09:22:33;100958.03;;;1.00;45.01
74578;BME280;75151;49.086;33.418;2024-03-22T09:24:59;100953.34;;;1.41;45.70
74578;BME280;75151;49.086;33.418;2024-03-22T09:27:25;100954.47;;;2.52;43.02
74578;BME280;75151;49.086;33.418;2024-03-22T09:29:50;100947.84;;;1.71;44.16
74578;BME280;75151;49.086;33.418;2024-03-22T09:32:16;100947.31;;;1.69;44.47
74578;BME280;75151;49.086;33.418;2024-03-22T09:34:42;100956.59;;;2.94;42.57
74578;BME280;75151;49.086;33.418;2024-03-22T09:37:08;100956.69;;;3.88;40.66
74578;BME280;75151;49.086;33.418;2024-03-22T09:39:33;100947.75;;;3.36;40.45
74578;BME280;75151;49.086;33.418;2024-03-22T09:42:00;100950.78;;;3.81;40.82
74578;BME280;75151;49.086;33.418;2024-03-22T09:44:32;100942.88;;;3.04;42.84
74578;BME280;75151;49.086;33.418;2024-03-22T09:46:59;100945.34;;;3.05;41.00
74578;BME280;75151;49.086;33.418;2024-03-22T09:49:25;100937.06;;;4.24;39.28
74578;BME280;75151;49.086;33.418;2024-03-22T09:51:51;100929.28;;;4.86;39.01
74578;BME280;75151;49.086;33.418;2024-03-22T09:54:17;100938.25;;;4.17;39.45
74578;BME280;75151;49.086;33.418;2024-03-22T09:56:43;100929.56;;;4.53;38.57
74578;BME280;75151;49.086;33.418;2024-03-22T09:59:09;100924.22;;;4.80;38.00
74578;BME280;75151;49.086;33.418;2024-03-22T10:01:39;100927.22;;;3.85;39.46
74578;BME280;75151;49.086;33.418;2024-03-22T10:04:05;100925.91;;;4.01;38.56
74578;BME280;75151;49.086;33.418;2024-03-22T10:06:31;100935.34;;;3.90;40.04
74578;BME280;75151;49.086;33.418;2024-03-22T10:09:00;100936.03;;;4.19;38.82
74578;BME280;75151;49.086;33.418;2024-03-22T10:11:28;100923.34;;;3.20;39.44
74578;BME280;75151;49.086;33.418;2024-03-22T10:13:54;100932.03;;;3.93;40.36
74578;BME280;75151;49.086;33.418;2024-03-22T10:16:21;100926.19;;;2.77;41.41
74578;BME280;75151;49.086;33.418;2024-03-22T10:18:47;100917.03;;;2.29;43.06
74578;BME280;75151;49.086;33.418;2024-03-22T10:21:17;100921.34;;;2.69;42.43
74578;BME280;75151;49.086;33.418;2024-03-22T10:23:43;100920.50;;;3.31;41.47
74578;BME280;75151;49.086;33.418;2024-03-22T10:26:10;100917.94;;;3.15;41.05
74578;BME280;75151;49.086;33.418;2024-03-22T10:28:35;100924.38;;;2.96;41.55
74578;BME280;75151;49.086;33.418;2024-03-22T10:31:01;100916.75;;;3.50;41.07
74578;BME280;75151;49.086;33.418;2024-03-22T10:33:28;100912.25;;;3.83;40.26
74578;BME280;75151;49.086;33.418;2024-03-22T10:35:54;100914.78;;;4.86;38.32
74578;BME280;75151;49.086;33.418;2024-03-22T10:38:21;100922.88;;;5.23;37.90
74578;BME280;75151;49.086;33.418;2024-03-22T10:40:47;100912.78;;;3.14;41.02
74578;BME280;75151;49.086;33.418;2024-03-22T10:43:14;100914.28;;;4.33;38.01
74578;BME280;75151;49.086;33.418;2024-03-22T10:45:40;100914.84;;;1.82;44.44
74578;BME280;75151;49.086;33.418;2024-03-22T10:48:10;100918.06;;;3.00;42.30
74578;BME280;75151;49.086;33.418;2024-03-22T10:50:42;100913.19;;;3.50;40.81
74578;BME280;75151;49.086;33.418;2024-03-22T10:53:12;100915.91;;;4.15;39.99
74578;BME280;75151;49.086;33.418;2024-03-22T10:55:43;100907.88;;;3.40;40.63
74578;BME280;75151;49.086;33.418;2024-03-22T10:58:21;100905.94;;;2.54;42.08
74578;BME280;75151;49.086;33.418;2024-03-22T11:00:51;100898.84;;;2.53;42.28
74578;BME280;75151;49.086;33.418;2024-03-22T11:03:19;100893.34;;;2.29;42.49
74578;BME280;75151;49.086;33.418;2024-03-22T11:05:45;100891.69;;;4.28;39.14
74578;BME280;75151;49.086;33.418;2024-03-22T11:08:11;100887.59;;;3.22;41.38
74578;BME280;75151;49.086;33.418;2024-03-22T11:10:37;100882.56;;;4.83;38.41
74578;BME280;75151;49.086;33.418;2024-03-22T11:13:04;100885.56;;;3.09;40.60
74578;BME280;75151;49.086;33.418;2024-03-22T11:15:31;100877.66;;;5.39;37.46
74578;BME280;75151;49.086;33.418;2024-03-22T11:17:57;100872.53;;;4.78;36.93
74578;BME280;75151;49.086;33.418;2024-03-22T11:20:23;100876.78;;;5.44;37.90
74578;BME280;75151;49.086;33.418;2024-03-22T11:22:51;100873.34;;;3.01;40.80
74578;BME280;75151;49.086;33.418;2024-03-22T11:25:16;100866.72;;;5.39;36.59
74578;BME280;75151;49.086;33.418;2024-03-22T11:27:43;100861.22;;;5.26;36.77
74578;BME280;75151;49.086;33.418;2024-03-22T11:30:09;100865.75;;;4.76;37.03
74578;BME280;75151;49.086;33.418;2024-03-22T11:32:35;100852.97;;;6.29;34.84
74578;BME280;75151;49.086;33.418;2024-03-22T11:35:10;100848.69;;;5.52;35.29
74578;BME280;75151;49.086;33.418;2024-03-22T11:37:38;100836.94;;;6.23;34.44
74578;BME280;75151;49.086;33.418;2024-03-22T11:40:04;100843.00;;;7.56;31.93
74578;BME280;75151;49.086;33.418;2024-03-22T11:42:34;100843.41;;;6.27;32.60
74578;BME280;75151;49.086;33.418;2024-03-22T11:45:01;100839.69;;;6.67;33.02
74578;BME280;75151;49.086;33.418;2024-03-22T11:47:27;100829.44;;;4.06;36.91
74578;BME280;75151;49.086;33.418;2024-03-22T11:49:55;100833.47;;;5.19;36.43
74578;BME280;75151;49.086;33.418;2024-03-22T11:52:28;100832.50;;;4.37;37.31
74578;BME280;75151;49.086;33.418;2024-03-22T11:54:53;100833.06;;;6.46;33.62
74578;BME280;75151;49.086;33.418;2024-03-22T11:57:23;100827.28;;;6.47;33.44
74578;BME280;75151;49.086;33.418;2024-03-22T11:59:50;100822.81;;;7.13;32.23
74578;BME280;75151;49.086;33.418;2024-03-22T12:02:16;100805.38;;;4.40;35.37
74578;BME280;75151;49.086;33.418;2024-03-22T12:04:46;100803.34;;;5.05;35.98
74578;BME280;75151;49.086;33.418;2024-03-22T12:07:16;100798.41;;;6.28;34.53
74578;BME280;75151;49.086;33.418;2024-03-22T12:09:42;100785.28;;;8.50;31.35
74578;BME280;75151;49.086;33.418;2024-03-22T12:12:11;100786.34;;;5.84;33.48
74578;BME280;75151;49.086;33.418;2024-03-22T12:14:37;100774.16;;;8.04;31.02
74578;BME280;75151;49.086;33.418;2024-03-22T12:17:04;100778.06;;;8.03;30.95
74578;BME280;75151;49.086;33.418;2024-03-22T12:19:30;100775.84;;;8.68;29.69
74578;BME280;75151;49.086;33.418;2024-03-22T12:21:56;100782.13;;;9.15;29.98
74578;BME280;75151;49.086;33.418;2024-03-22T12:24:22;100776.59;;;8.22;30.79
74578;BME280;75151;49.086;33.418;2024-03-22T12:26:49;100781.81;;;7.25;32.50
74578;BME280;75151;49.086;33.418;2024-03-22T12:29:17;100784.03;;;6.22;33.22
74578;BME280;75151;49.086;33.418;2024-03-22T12:31:44;100782.13;;;6.00;34.11
74578;BME280;75151;49.086;33.418;2024-03-22T12:34:10;100775.13;;;5.72;34.23
74578;BME280;75151;49.086;33.418;2024-03-22T12:36:36;100774.72;;;5.65;32.69
74578;BME280;75151;49.086;33.418;2024-03-22T12:39:02;100771.94;;;5.43;33.65
74578;BME280;75151;49.086;33.418;2024-03-22T12:41:29;100770.63;;;4.73;34.65
74578;BME280;75151;49.086;33.418;2024-03-22T12:43:55;100770.41;;;5.37;34.42
74578;BME280;75151;49.086;33.418;2024-03-22T12:46:21;100773.47;;;5.22;34.42